sensor_id;sensor_type;location;lat;lon;timestamp;P1;durP1;ratioP1;P2;durP2;ratioP2
72125;SDS011;59999;51.676;22.650;2023-07-30T00:00:16;5.60;;;2.33;;
72125;SDS011;59999;51.676;22.650;2023-07-30T00:03:02;5.43;;;2.58;;
72125;SDS011;59999;51.676;22.650;2023-07-30T00:05:28;8.07;;;3.27;;
72125;SDS011;59999;51.676;22.650;2023-07-30T00:07:54;7.53;;;3.17;;
72125;SDS011;59999;51.676;22.650;2023-07-30T00:10:20;5.80;;;2.75;;
72125;SDS011;59999;51.676;22.650;2023-07-30T00:12:46;6.70;;;3.10;;
72125;SDS011;59999;51.676;22.650;2023-07-30T00:15:12;8.82;;;3.20;;
72125;SDS011;59999;51.676;22.650;2023-07-30T00:17:38;7.82;;;3.33;;
72125;SDS011;59999;51.676;22.650;2023-07-30T00:20:06;9.15;;;3.80;;
72125;SDS011;59999;51.676;22.650;2023-07-30T00:22:32;7.57;;;3.50;;
72125;SDS011;59999;51.676;22.650;2023-07-30T00:24:58;10.30;;;3.63;;
72125;SDS011;59999;51.676;22.650;2023-07-30T00:27:24;9.10;;;3.75;;
72125;SDS011;59999;51.676;22.650;2023-07-30T00:29:50;11.90;;;4.07;;
72125;SDS011;59999;51.676;22.650;2023-07-30T00:32:16;11.53;;;3.87;;
72125;SDS011;59999;51.676;22.650;2023-07-30T00:34:43;8.27;;;4.25;;
72125;SDS011;59999;51.676;22.650;2023-07-30T00:37:09;9.57;;;3.90;;
72125;SDS011;59999;51.676;22.650;2023-07-30T00:39:35;8.85;;;4.30;;
72125;SDS011;59999;51.676;22.650;2023-07-30T00:42:01;10.83;;;3.73;;
72125;SDS011;59999;51.676;22.650;2023-07-30T00:44:27;11.63;;;4.25;;
72125;SDS011;59999;51.676;22.650;2023-07-30T00:46:53;9.45;;;4.25;;
72125;SDS011;59999;51.676;22.650;2023-07-30T00:49:19;7.67;;;3.80;;
72125;SDS011;59999;51.676;22.650;2023-07-30T00:51:45;8.05;;;4.43;;
72125;SDS011;59999;51.676;22.650;2023-07-30T00:54:11;11.25;;;4.32;;
72125;SDS011;59999;51.676;22.650;2023-07-30T00:56:37;12.07;;;4.90;;
72125;SDS011;59999;51.676;22.650;2023-07-30T00:59:05;12.47;;;4.50;;
72125;SDS011;59999;51.676;22.650;2023-07-30T01:01:31;10.98;;;3.97;;
72125;SDS011;59999;51.676;22.650;2023-07-30T01:04:01;10.98;;;5.47;;
72125;SDS011;59999;51.676;22.650;2023-07-30T01:06:27;8.47;;;4.70;;
72125;SDS011;59999;51.676;22.650;2023-07-30T01:08:53;11.15;;;4.60;;
72125;SDS011;59999;51.676;22.650;2023-07-30T01:11:19;9.77;;;4.43;;
72125;SDS011;59999;51.676;22.650;2023-07-30T01:13:45;11.03;;;4.90;;
72125;SDS011;59999;51.676;22.650;2023-07-30T01:16:12;11.80;;;4.57;;
72125;SDS011;59999;51.676;22.650;2023-07-30T01:18:38;8.98;;;4.53;;
72125;SDS011;59999;51.676;22.650;2023-07-30T01:21:03;12.30;;;5.05;;
72125;SDS011;59999;51.676;22.650;2023-07-30T01:23:30;10.82;;;5.15;;
72125;SDS011;59999;51.676;22.650;2023-07-30T01:26:17;10.53;;;5.10;;
72125;SDS011;59999;51.676;22.650;2023-07-30T01:28:58;10.35;;;4.78;;
72125;SDS011;59999;51.676;22.650;2023-07-30T01:31:26;9.88;;;5.28;;
72125;SDS011;59999;51.676;22.650;2023-07-30T01:33:54;9.50;;;4.80;;
72125;SDS011;59999;51.676;22.650;2023-07-30T01:36:21;9.75;;;4.60;;
72125;SDS011;59999;51.676;22.650;2023-07-30T01:38:48;10.43;;;4.22;;
72125;SDS011;59999;51.676;22.650;2023-07-30T01:41:15;8.70;;;4.45;;
72125;SDS011;59999;51.676;22.650;2023-07-30T01:43:42;11.02;;;5.00;;
72125;SDS011;59999;51.676;22.650;2023-07-30T01:46:07;10.87;;;4.83;;
72125;SDS011;59999;51.676;22.650;2023-07-30T01:48:33;11.05;;;5.10;;
72125;SDS011;59999;51.676;22.650;2023-07-30T01:50:59;9.73;;;4.87;;
72125;SDS011;59999;51.676;22.650;2023-07-30T01:53:25;11.02;;;4.60;;
72125;SDS011;59999;51.676;22.650;2023-07-30T01:55:51;10.15;;;5.03;;
72125;SDS011;59999;51.676;22.650;2023-07-30T01:58:17;10.73;;;5.63;;
72125;SDS011;59999;51.676;22.650;2023-07-30T02:00:42;12.47;;;5.67;;
72125;SDS011;59999;51.676;22.650;2023-07-30T02:03:11;12.55;;;5.90;;
72125;SDS011;59999;51.676;22.650;2023-07-30T02:05:37;10.93;;;5.53;;
72125;SDS011;59999;51.676;22.650;2023-07-30T02:08:03;9.63;;;5.20;;
72125;SDS011;59999;51.676;22.650;2023-07-30T02:10:29;11.50;;;6.00;;
72125;SDS011;59999;51.676;22.650;2023-07-30T02:12:55;16.33;;;6.40;;
72125;SDS011;59999;51.676;22.650;2023-07-30T02:15:20;12.40;;;6.07;;
72125;SDS011;59999;51.676;22.650;2023-07-30T02:17:46;11.68;;;6.28;;
72125;SDS011;59999;51.676;22.650;2023-07-30T02:20:12;13.57;;;6.43;;
72125;SDS011;59999;51.676;22.650;2023-07-30T02:22:38;13.17;;;7.33;;
72125;SDS011;59999;51.676;22.650;2023-07-30T02:25:04;12.27;;;6.50;;
72125;SDS011;59999;51.676;22.650;2023-07-30T02:27:30;12.20;;;7.07;;
72125;SDS011;59999;51.676;22.650;2023-07-30T02:29:56;12.90;;;7.67;;
72125;SDS011;59999;51.676;22.650;2023-07-30T02:32:22;12.13;;;7.10;;
72125;SDS011;59999;51.676;22.650;2023-07-30T02:34:48;16.47;;;7.23;;
72125;SDS011;59999;51.676;22.650;2023-07-30T02:37:14;10.85;;;6.90;;
72125;SDS011;59999;51.676;22.650;2023-07-30T02:39:40;12.35;;;6.65;;
72125;SDS011;59999;51.676;22.650;2023-07-30T02:42:06;13.40;;;7.35;;
72125;SDS011;59999;51.676;22.650;2023-07-30T02:44:32;14.33;;;7.83;;
72125;SDS011;59999;51.676;22.650;2023-07-30T02:46:58;13.45;;;6.90;;
72125;SDS011;59999;51.676;22.650;2023-07-30T02:49:24;11.93;;;7.15;;
72125;SDS011;59999;51.676;22.650;2023-07-30T02:51:50;13.40;;;7.27;;
72125;SDS011;59999;51.676;22.650;2023-07-30T02:54:16;11.80;;;7.05;;
72125;SDS011;59999;51.676;22.650;2023-07-30T02:56:42;12.50;;;7.63;;
72125;SDS011;59999;51.676;22.650;2023-07-30T02:59:08;12.13;;;6.93;;
72125;SDS011;59999;51.676;22.650;2023-07-30T03:01:34;12.27;;;7.55;;
72125;SDS011;59999;51.676;22.650;2023-07-30T03:04:01;13.23;;;7.45;;
72125;SDS011;59999;51.676;22.650;2023-07-30T03:06:27;14.55;;;7.43;;
72125;SDS011;59999;51.676;22.650;2023-07-30T03:08:52;12.93;;;7.70;;
72125;SDS011;59999;51.676;22.650;2023-07-30T03:11:18;12.85;;;7.55;;
72125;SDS011;59999;51.676;22.650;2023-07-30T03:13:44;13.45;;;7.57;;
72125;SDS011;59999;51.676;22.650;2023-07-30T03:16:10;13.95;;;7.68;;
72125;SDS011;59999;51.676;22.650;2023-07-30T03:18:36;12.93;;;7.57;;
72125;SDS011;59999;51.676;22.650;2023-07-30T03:21:02;14.13;;;7.85;;
72125;SDS011;59999;51.676;22.650;2023-07-30T03:23:29;13.98;;;8.45;;
72125;SDS011;59999;51.676;22.650;2023-07-30T03:25:55;14.32;;;8.40;;
72125;SDS011;59999;51.676;22.650;2023-07-30T03:28:20;14.17;;;8.17;;
72125;SDS011;59999;51.676;22.650;2023-07-30T03:30:47;15.52;;;8.23;;
72125;SDS011;59999;51.676;22.650;2023-07-30T03:33:12;15.35;;;8.85;;
72125;SDS011;59999;51.676;22.650;2023-07-30T03:35:38;15.97;;;9.20;;
72125;SDS011;59999;51.676;22.650;2023-07-30T03:38:04;15.23;;;8.43;;
72125;SDS011;59999;51.676;22.650;2023-07-30T03:40:30;14.80;;;8.98;;
72125;SDS011;59999;51.676;22.650;2023-07-30T03:42:56;16.00;;;8.30;;
72125;SDS011;59999;51.676;22.650;2023-07-30T03:45:22;15.98;;;9.65;;
72125;SDS011;59999;51.676;22.650;2023-07-30T03:47:47;16.50;;;9.50;;
72125;SDS011;59999;51.676;22.650;2023-07-30T03:50:14;16.35;;;8.88;;
72125;SDS011;59999;51.676;22.650;2023-07-30T03:52:40;17.00;;;9.40;;
72125;SDS011;59999;51.676;22.650;2023-07-30T03:55:06;18.77;;;9.63;;
72125;SDS011;59999;51.676;22.650;2023-07-30T03:57:32;16.73;;;9.43;;
72125;SDS011;59999;51.676;22.650;2023-07-30T03:59:58;20.53;;;10.60;;
72125;SDS011;59999;51.676;22.650;2023-07-30T04:02:23;19.15;;;10.77;;
72125;SDS011;59999;51.676;22.650;2023-07-30T04:04:49;19.75;;;10.43;;
72125;SDS011;59999;51.676;22.650;2023-07-30T04:07:15;19.90;;;10.50;;
72125;SDS011;59999;51.676;22.650;2023-07-30T04:09:42;19.55;;;11.35;;
72125;SDS011;59999;51.676;22.650;2023-07-30T04:12:07;23.83;;;11.68;;
72125;SDS011;59999;51.676;22.650;2023-07-30T04:14:33;19.95;;;10.60;;
72125;SDS011;59999;51.676;22.650;2023-07-30T04:16:59;22.27;;;11.47;;
72125;SDS011;59999;51.676;22.650;2023-07-30T04:19:25;20.33;;;10.48;;
72125;SDS011;59999;51.676;22.650;2023-07-30T04:21:51;14.83;;;8.50;;
72125;SDS011;59999;51.676;22.650;2023-07-30T04:24:17;16.50;;;10.32;;
72125;SDS011;59999;51.676;22.650;2023-07-30T04:26:43;17.52;;;10.13;;
72125;SDS011;59999;51.676;22.650;2023-07-30T04:29:09;17.30;;;9.75;;
72125;SDS011;59999;51.676;22.650;2023-07-30T04:31:35;17.33;;;10.17;;
72125;SDS011;59999;51.676;22.650;2023-07-30T04:34:01;15.20;;;9.38;;
72125;SDS011;59999;51.676;22.650;2023-07-30T04:36:27;15.48;;;8.30;;
72125;SDS011;59999;51.676;22.650;2023-07-30T04:38:54;15.90;;;9.63;;
72125;SDS011;59999;51.676;22.650;2023-07-30T04:41:20;15.80;;;9.77;;
72125;SDS011;59999;51.676;22.650;2023-07-30T04:43:46;16.40;;;9.35;;
72125;SDS011;59999;51.676;22.650;2023-07-30T04:46:15;16.92;;;10.10;;
72125;SDS011;59999;51.676;22.650;2023-07-30T04:48:41;15.52;;;9.90;;
72125;SDS011;59999;51.676;22.650;2023-07-30T04:51:06;22.27;;;9.60;;
72125;SDS011;59999;51.676;22.650;2023-07-30T04:53:32;17.70;;;9.57;;
72125;SDS011;59999;51.676;22.650;2023-07-30T04:55:58;14.30;;;9.13;;
72125;SDS011;59999;51.676;22.650;2023-07-30T04:58:24;13.40;;;8.37;;
72125;SDS011;59999;51.676;22.650;2023-07-30T05:00:53;16.88;;;9.65;;
72125;SDS011;59999;51.676;22.650;2023-07-30T05:03:19;13.20;;;8.13;;
72125;SDS011;59999;51.676;22.650;2023-07-30T05:05:45;14.20;;;8.68;;
72125;SDS011;59999;51.676;22.650;2023-07-30T05:08:14;16.53;;;9.60;;
72125;SDS011;59999;51.676;22.650;2023-07-30T05:10:39;14.60;;;9.00;;
72125;SDS011;59999;51.676;22.650;2023-07-30T05:13:05;15.32;;;8.80;;
72125;SDS011;59999;51.676;22.650;2023-07-30T05:15:31;13.17;;;8.47;;
72125;SDS011;59999;51.676;22.650;2023-07-30T05:17:57;13.52;;;7.95;;
72125;SDS011;59999;51.676;22.650;2023-07-30T05:20:23;12.52;;;7.15;;
72125;SDS011;59999;51.676;22.650;2023-07-30T05:22:50;11.05;;;6.85;;
72125;SDS011;59999;51.676;22.650;2023-07-30T05:25:15;9.70;;;5.90;;
72125;SDS011;59999;51.676;22.650;2023-07-30T05:27:41;9.05;;;5.63;;
72125;SDS011;59999;51.676;22.650;2023-07-30T05:30:07;9.60;;;5.57;;
72125;SDS011;59999;51.676;22.650;2023-07-30T05:32:34;9.27;;;5.13;;
72125;SDS011;59999;51.676;22.650;2023-07-30T05:34:59;8.85;;;5.25;;
72125;SDS011;59999;51.676;22.650;2023-07-30T05:37:26;8.50;;;5.15;;
72125;SDS011;59999;51.676;22.650;2023-07-30T05:39:51;7.43;;;5.03;;
72125;SDS011;59999;51.676;22.650;2023-07-30T05:42:17;9.00;;;4.82;;
72125;SDS011;59999;51.676;22.650;2023-07-30T05:44:43;8.00;;;5.00;;
72125;SDS011;59999;51.676;22.650;2023-07-30T05:47:09;8.88;;;5.50;;
72125;SDS011;59999;51.676;22.650;2023-07-30T05:49:35;10.20;;;5.78;;
72125;SDS011;59999;51.676;22.650;2023-07-30T05:52:01;8.70;;;4.97;;
72125;SDS011;59999;51.676;22.650;2023-07-30T05:54:27;8.77;;;5.00;;
72125;SDS011;59999;51.676;22.650;2023-07-30T05:56:53;11.20;;;4.60;;
72125;SDS011;59999;51.676;22.650;2023-07-30T05:59:19;9.23;;;4.60;;
72125;SDS011;59999;51.676;22.650;2023-07-30T06:01:45;9.13;;;5.10;;
72125;SDS011;59999;51.676;22.650;2023-07-30T06:04:11;9.43;;;4.70;;
72125;SDS011;59999;51.676;22.650;2023-07-30T06:06:37;8.80;;;4.53;;
72125;SDS011;59999;51.676;22.650;2023-07-30T06:09:03;7.53;;;4.50;;
72125;SDS011;59999;51.676;22.650;2023-07-30T06:11:29;9.60;;;4.40;;
72125;SDS011;59999;51.676;22.650;2023-07-30T06:13:55;8.35;;;4.35;;
72125;SDS011;59999;51.676;22.650;2023-07-30T06:16:21;7.00;;;4.50;;
72125;SDS011;59999;51.676;22.650;2023-07-30T06:18:47;8.87;;;4.43;;
72125;SDS011;59999;51.676;22.650;2023-07-30T06:21:13;7.40;;;4.50;;
72125;SDS011;59999;51.676;22.650;2023-07-30T06:23:39;8.90;;;4.40;;
72125;SDS011;59999;51.676;22.650;2023-07-30T06:26:05;7.00;;;4.43;;
72125;SDS011;59999;51.676;22.650;2023-07-30T06:28:31;8.98;;;4.60;;
72125;SDS011;59999;51.676;22.650;2023-07-30T06:31:01;8.30;;;4.65;;
72125;SDS011;59999;51.676;22.650;2023-07-30T06:33:27;8.15;;;4.55;;
72125;SDS011;59999;51.676;22.650;2023-07-30T06:35:53;8.47;;;4.90;;
72125;SDS011;59999;51.676;22.650;2023-07-30T06:38:19;8.10;;;5.00;;
72125;SDS011;59999;51.676;22.650;2023-07-30T06:40:45;8.48;;;4.78;;
72125;SDS011;59999;51.676;22.650;2023-07-30T06:43:10;7.30;;;4.57;;
72125;SDS011;59999;51.676;22.650;2023-07-30T06:45:37;7.97;;;5.10;;
72125;SDS011;59999;51.676;22.650;2023-07-30T06:48:02;7.55;;;4.82;;
72125;SDS011;59999;51.676;22.650;2023-07-30T06:50:29;8.07;;;4.63;;
72125;SDS011;59999;51.676;22.650;2023-07-30T06:52:54;7.50;;;4.67;;
72125;SDS011;59999;51.676;22.650;2023-07-30T06:55:20;6.82;;;4.15;;
72125;SDS011;59999;51.676;22.650;2023-07-30T06:57:46;7.33;;;4.03;;
72125;SDS011;59999;51.676;22.650;2023-07-30T07:00:12;6.23;;;3.87;;
72125;SDS011;59999;51.676;22.650;2023-07-30T07:02:44;7.53;;;4.43;;
72125;SDS011;59999;51.676;22.650;2023-07-30T07:05:10;7.90;;;4.10;;
72125;SDS011;59999;51.676;22.650;2023-07-30T07:07:36;7.20;;;4.27;;
72125;SDS011;59999;51.676;22.650;2023-07-30T07:10:02;6.90;;;3.90;;
72125;SDS011;59999;51.676;22.650;2023-07-30T07:12:28;7.28;;;4.10;;
72125;SDS011;59999;51.676;22.650;2023-07-30T07:14:54;8.02;;;4.00;;
72125;SDS011;59999;51.676;22.650;2023-07-30T07:17:24;7.15;;;3.97;;
72125;SDS011;59999;51.676;22.650;2023-07-30T07:19:50;8.10;;;4.10;;
72125;SDS011;59999;51.676;22.650;2023-07-30T07:22:15;7.78;;;4.18;;
72125;SDS011;59999;51.676;22.650;2023-07-30T07:24:44;8.88;;;4.65;;
72125;SDS011;59999;51.676;22.650;2023-07-30T07:27:10;8.90;;;4.38;;
72125;SDS011;59999;51.676;22.650;2023-07-30T07:29:37;8.53;;;4.20;;
72125;SDS011;59999;51.676;22.650;2023-07-30T07:32:03;7.22;;;3.80;;
72125;SDS011;59999;51.676;22.650;2023-07-30T07:34:29;7.13;;;3.83;;
72125;SDS011;59999;51.676;22.650;2023-07-30T07:36:55;6.67;;;3.90;;
72125;SDS011;59999;51.676;22.650;2023-07-30T07:39:21;7.65;;;4.13;;
72125;SDS011;59999;51.676;22.650;2023-07-30T07:41:47;7.75;;;4.00;;
72125;SDS011;59999;51.676;22.650;2023-07-30T07:44:13;7.45;;;4.00;;
72125;SDS011;59999;51.676;22.650;2023-07-30T07:46:39;6.73;;;3.63;;
72125;SDS011;59999;51.676;22.650;2023-07-30T07:49:05;7.57;;;3.88;;
72125;SDS011;59999;51.676;22.650;2023-07-30T07:51:31;6.50;;;3.50;;
72125;SDS011;59999;51.676;22.650;2023-07-30T07:53:58;8.15;;;3.70;;
72125;SDS011;59999;51.676;22.650;2023-07-30T07:56:23;6.50;;;3.67;;
72125;SDS011;59999;51.676;22.650;2023-07-30T07:58:49;6.53;;;3.78;;
72125;SDS011;59999;51.676;22.650;2023-07-30T08:01:15;6.43;;;3.63;;
72125;SDS011;59999;51.676;22.650;2023-07-30T08:03:41;6.10;;;3.17;;
72125;SDS011;59999;51.676;22.650;2023-07-30T08:06:07;6.60;;;3.88;;
72125;SDS011;59999;51.676;22.650;2023-07-30T08:08:33;7.28;;;4.00;;
72125;SDS011;59999;51.676;22.650;2023-07-30T08:11:04;8.23;;;3.87;;
72125;SDS011;59999;51.676;22.650;2023-07-30T08:13:31;8.52;;;3.70;;
72125;SDS011;59999;51.676;22.650;2023-07-30T08:15:57;6.75;;;3.05;;
72125;SDS011;59999;51.676;22.650;2023-07-30T08:18:23;7.07;;;3.70;;
72125;SDS011;59999;51.676;22.650;2023-07-30T08:20:49;7.75;;;3.80;;
72125;SDS011;59999;51.676;22.650;2023-07-30T08:23:15;6.38;;;3.83;;
72125;SDS011;59999;51.676;22.650;2023-07-30T08:25:41;7.97;;;3.10;;
72125;SDS011;59999;51.676;22.650;2023-07-30T08:28:07;7.97;;;3.67;;
72125;SDS011;59999;51.676;22.650;2023-07-30T08:30:33;5.95;;;3.53;;
72125;SDS011;59999;51.676;22.650;2023-07-30T08:32:59;7.20;;;3.30;;
72125;SDS011;59999;51.676;22.650;2023-07-30T08:35:25;5.40;;;2.88;;
72125;SDS011;59999;51.676;22.650;2023-07-30T08:37:52;5.30;;;2.70;;
72125;SDS011;59999;51.676;22.650;2023-07-30T08:40:20;6.35;;;3.10;;
72125;SDS011;59999;51.676;22.650;2023-07-30T08:42:50;5.40;;;2.93;;
72125;SDS011;59999;51.676;22.650;2023-07-30T08:45:17;5.13;;;2.60;;
72125;SDS011;59999;51.676;22.650;2023-07-30T08:47:45;5.03;;;2.60;;
72125;SDS011;59999;51.676;22.650;2023-07-30T08:50:12;6.28;;;2.70;;
72125;SDS011;59999;51.676;22.650;2023-07-30T08:52:38;6.40;;;3.10;;
72125;SDS011;59999;51.676;22.650;2023-07-30T08:55:04;5.07;;;2.67;;
72125;SDS011;59999;51.676;22.650;2023-07-30T08:57:31;5.38;;;2.80;;
72125;SDS011;59999;51.676;22.650;2023-07-30T09:00:08;4.40;;;2.33;;
72125;SDS011;59999;51.676;22.650;2023-07-30T09:02:39;5.38;;;2.40;;
72125;SDS011;59999;51.676;22.650;2023-07-30T09:05:10;8.07;;;2.40;;
72125;SDS011;59999;51.676;22.650;2023-07-30T09:07:36;5.00;;;2.30;;
72125;SDS011;59999;51.676;22.650;2023-07-30T09:10:02;5.32;;;2.13;;
72125;SDS011;59999;51.676;22.650;2023-07-30T09:12:32;5.63;;;2.47;;
72125;SDS011;59999;51.676;22.650;2023-07-30T09:14:58;5.93;;;2.20;;
72125;SDS011;59999;51.676;22.650;2023-07-30T09:17:25;4.88;;;2.30;;
72125;SDS011;59999;51.676;22.650;2023-07-30T09:19:51;4.47;;;2.00;;
72125;SDS011;59999;51.676;22.650;2023-07-30T09:22:25;5.20;;;2.40;;
72125;SDS011;59999;51.676;22.650;2023-07-30T09:24:55;5.40;;;2.38;;
72125;SDS011;59999;51.676;22.650;2023-07-30T09:27:23;4.83;;;1.90;;
72125;SDS011;59999;51.676;22.650;2023-07-30T09:30:00;4.47;;;1.88;;
72125;SDS011;59999;51.676;22.650;2023-07-30T09:32:29;4.53;;;1.90;;
72125;SDS011;59999;51.676;22.650;2023-07-30T09:37:36;4.40;;;2.10;;
72125;SDS011;59999;51.676;22.650;2023-07-30T09:40:04;3.97;;;1.93;;
72125;SDS011;59999;51.676;22.650;2023-07-30T09:42:34;4.35;;;2.17;;
72125;SDS011;59999;51.676;22.650;2023-07-30T09:45:03;5.90;;;2.10;;
72125;SDS011;59999;51.676;22.650;2023-07-30T09:47:30;4.72;;;2.20;;
72125;SDS011;59999;51.676;22.650;2023-07-30T09:49:56;5.10;;;2.20;;
72125;SDS011;59999;51.676;22.650;2023-07-30T09:52:22;4.30;;;2.03;;
72125;SDS011;59999;51.676;22.650;2023-07-30T09:54:51;9.20;;;2.15;;
72125;SDS011;59999;51.676;22.650;2023-07-30T09:57:18;4.00;;;2.08;;
72125;SDS011;59999;51.676;22.650;2023-07-30T09:59:44;6.07;;;2.30;;
72125;SDS011;59999;51.676;22.650;2023-07-30T10:02:10;4.97;;;2.10;;
72125;SDS011;59999;51.676;22.650;2023-07-30T10:04:40;5.05;;;2.33;;
72125;SDS011;59999;51.676;22.650;2023-07-30T10:07:10;6.43;;;2.30;;
72125;SDS011;59999;51.676;22.650;2023-07-30T10:09:40;5.47;;;2.42;;
72125;SDS011;59999;51.676;22.650;2023-07-30T10:12:14;4.83;;;1.93;;
72125;SDS011;59999;51.676;22.650;2023-07-30T10:14:42;4.15;;;2.13;;
72125;SDS011;59999;51.676;22.650;2023-07-30T10:17:09;5.70;;;2.40;;
72125;SDS011;59999;51.676;22.650;2023-07-30T10:19:36;4.80;;;2.30;;
72125;SDS011;59999;51.676;22.650;2023-07-30T10:24:38;5.10;;;2.30;;
72125;SDS011;59999;51.676;22.650;2023-07-30T10:27:08;5.13;;;2.28;;
72125;SDS011;59999;51.676;22.650;2023-07-30T10:29:40;5.65;;;2.30;;
72125;SDS011;59999;51.676;22.650;2023-07-30T10:32:07;4.35;;;2.00;;
72125;SDS011;59999;51.676;22.650;2023-07-30T10:34:46;5.05;;;2.35;;
72125;SDS011;59999;51.676;22.650;2023-07-30T10:37:20;5.20;;;2.20;;
72125;SDS011;59999;51.676;22.650;2023-07-30T10:39:49;6.63;;;2.47;;
72125;SDS011;59999;51.676;22.650;2023-07-30T10:42:15;5.28;;;2.35;;
72125;SDS011;59999;51.676;22.650;2023-07-30T10:44:43;6.13;;;2.10;;
72125;SDS011;59999;51.676;22.650;2023-07-30T10:47:11;4.40;;;2.10;;
72125;SDS011;59999;51.676;22.650;2023-07-30T10:49:37;4.90;;;2.40;;
72125;SDS011;59999;51.676;22.650;2023-07-30T10:52:04;6.05;;;2.30;;
72125;SDS011;59999;51.676;22.650;2023-07-30T10:54:33;4.97;;;2.33;;
72125;SDS011;59999;51.676;22.650;2023-07-30T10:57:00;4.70;;;2.30;;
72125;SDS011;59999;51.676;22.650;2023-07-30T10:59:26;6.10;;;2.33;;
72125;SDS011;59999;51.676;22.650;2023-07-30T11:01:58;4.40;;;2.27;;
72125;SDS011;59999;51.676;22.650;2023-07-30T11:04:24;5.50;;;2.60;;
72125;SDS011;59999;51.676;22.650;2023-07-30T11:06:51;5.38;;;2.42;;
72125;SDS011;59999;51.676;22.650;2023-07-30T11:09:23;4.45;;;2.30;;
72125;SDS011;59999;51.676;22.650;2023-07-30T11:11:51;4.53;;;2.03;;
72125;SDS011;59999;51.676;22.650;2023-07-30T11:14:19;5.55;;;2.38;;
72125;SDS011;59999;51.676;22.650;2023-07-30T11:16:49;4.13;;;1.95;;
72125;SDS011;59999;51.676;22.650;2023-07-30T11:19:16;5.57;;;2.15;;
72125;SDS011;59999;51.676;22.650;2023-07-30T11:21:50;5.38;;;2.60;;
72125;SDS011;59999;51.676;22.650;2023-07-30T11:24:17;6.10;;;2.63;;
72125;SDS011;59999;51.676;22.650;2023-07-30T11:26:43;4.80;;;2.22;;
72125;SDS011;59999;51.676;22.650;2023-07-30T11:29:19;5.43;;;2.88;;
72125;SDS011;59999;51.676;22.650;2023-07-30T11:31:46;4.70;;;1.95;;
72125;SDS011;59999;51.676;22.650;2023-07-30T11:34:13;4.55;;;2.10;;
72125;SDS011;59999;51.676;22.650;2023-07-30T11:36:40;4.57;;;1.87;;
72125;SDS011;59999;51.676;22.650;2023-07-30T11:39:07;4.75;;;2.10;;
72125;SDS011;59999;51.676;22.650;2023-07-30T11:41:34;4.50;;;2.13;;
72125;SDS011;59999;51.676;22.650;2023-07-30T11:44:01;5.43;;;2.10;;
72125;SDS011;59999;51.676;22.650;2023-07-30T11:46:27;5.78;;;2.22;;
72125;SDS011;59999;51.676;22.650;2023-07-30T11:49:10;4.33;;;2.30;;
72125;SDS011;59999;51.676;22.650;2023-07-30T11:51:38;5.28;;;2.20;;
72125;SDS011;59999;51.676;22.650;2023-07-30T11:54:04;5.22;;;2.25;;
72125;SDS011;59999;51.676;22.650;2023-07-30T11:56:33;3.92;;;1.85;;
72125;SDS011;59999;51.676;22.650;2023-07-30T11:59:00;4.57;;;1.80;;
72125;SDS011;59999;51.676;22.650;2023-07-30T12:01:30;3.95;;;1.67;;
72125;SDS011;59999;51.676;22.650;2023-07-30T12:04:00;6.22;;;1.90;;
72125;SDS011;59999;51.676;22.650;2023-07-30T12:09:34;4.60;;;2.00;;
72125;SDS011;59999;51.676;22.650;2023-07-30T12:12:01;4.33;;;2.03;;
72125;SDS011;59999;51.676;22.650;2023-07-30T12:17:11;4.82;;;2.33;;
72125;SDS011;59999;51.676;22.650;2023-07-30T12:19:36;6.70;;;2.60;;
72125;SDS011;59999;51.676;22.650;2023-07-30T12:22:03;7.53;;;2.30;;
72125;SDS011;59999;51.676;22.650;2023-07-30T12:24:28;5.03;;;2.00;;
72125;SDS011;59999;51.676;22.650;2023-07-30T12:26:55;5.15;;;2.03;;
72125;SDS011;59999;51.676;22.650;2023-07-30T12:29:21;5.68;;;2.13;;
72125;SDS011;59999;51.676;22.650;2023-07-30T12:31:47;4.47;;;2.15;;
72125;SDS011;59999;51.676;22.650;2023-07-30T12:34:14;4.30;;;2.00;;
72125;SDS011;59999;51.676;22.650;2023-07-30T12:36:41;4.45;;;2.08;;
72125;SDS011;59999;51.676;22.650;2023-07-30T12:39:07;6.53;;;2.30;;
72125;SDS011;59999;51.676;22.650;2023-07-30T12:41:36;3.83;;;1.73;;
72125;SDS011;59999;51.676;22.650;2023-07-30T12:44:01;4.50;;;2.25;;
72125;SDS011;59999;51.676;22.650;2023-07-30T12:46:30;4.80;;;2.00;;
72125;SDS011;59999;51.676;22.650;2023-07-30T12:48:58;4.35;;;1.90;;
72125;SDS011;59999;51.676;22.650;2023-07-30T12:51:30;4.43;;;2.13;;
72125;SDS011;59999;51.676;22.650;2023-07-30T12:53:56;6.18;;;2.95;;
72125;SDS011;59999;51.676;22.650;2023-07-30T12:56:23;4.25;;;2.00;;
72125;SDS011;59999;51.676;22.650;2023-07-30T12:58:48;4.60;;;1.80;;
72125;SDS011;59999;51.676;22.650;2023-07-30T13:01:14;4.00;;;1.90;;
72125;SDS011;59999;51.676;22.650;2023-07-30T13:03:40;4.43;;;2.08;;
72125;SDS011;59999;51.676;22.650;2023-07-30T13:06:11;5.20;;;2.03;;
72125;SDS011;59999;51.676;22.650;2023-07-30T13:08:40;5.35;;;2.40;;
72125;SDS011;59999;51.676;22.650;2023-07-30T13:11:06;5.03;;;1.87;;
72125;SDS011;59999;51.676;22.650;2023-07-30T13:13:32;5.05;;;2.00;;
72125;SDS011;59999;51.676;22.650;2023-07-30T13:15:58;4.95;;;2.53;;
72125;SDS011;59999;51.676;22.650;2023-07-30T13:18:26;5.55;;;2.70;;
72125;SDS011;59999;51.676;22.650;2023-07-30T13:20:53;6.47;;;2.13;;
72125;SDS011;59999;51.676;22.650;2023-07-30T13:23:18;4.82;;;2.40;;
72125;SDS011;59999;51.676;22.650;2023-07-30T13:25:44;5.30;;;2.20;;
72125;SDS011;59999;51.676;22.650;2023-07-30T13:28:10;4.40;;;2.25;;
72125;SDS011;59999;51.676;22.650;2023-07-30T13:30:46;4.80;;;2.17;;
72125;SDS011;59999;51.676;22.650;2023-07-30T13:33:12;4.75;;;2.13;;
72125;SDS011;59999;51.676;22.650;2023-07-30T13:35:38;4.80;;;2.33;;
72125;SDS011;59999;51.676;22.650;2023-07-30T13:38:03;4.53;;;2.10;;
72125;SDS011;59999;51.676;22.650;2023-07-30T13:40:29;4.70;;;2.10;;
72125;SDS011;59999;51.676;22.650;2023-07-30T13:42:55;4.32;;;1.92;;
72125;SDS011;59999;51.676;22.650;2023-07-30T13:45:22;5.93;;;2.42;;
72125;SDS011;59999;51.676;22.650;2023-07-30T13:47:48;4.83;;;2.07;;
72125;SDS011;59999;51.676;22.650;2023-07-30T13:50:15;6.63;;;2.55;;
72125;SDS011;59999;51.676;22.650;2023-07-30T13:52:41;5.43;;;2.22;;
72125;SDS011;59999;51.676;22.650;2023-07-30T13:55:07;4.45;;;2.20;;
72125;SDS011;59999;51.676;22.650;2023-07-30T13:57:33;4.53;;;2.30;;
72125;SDS011;59999;51.676;22.650;2023-07-30T13:59:59;4.60;;;2.30;;
72125;SDS011;59999;51.676;22.650;2023-07-30T14:02:25;4.60;;;2.30;;
72125;SDS011;59999;51.676;22.650;2023-07-30T14:04:51;4.75;;;2.55;;
72125;SDS011;59999;51.676;22.650;2023-07-30T14:07:17;5.33;;;2.30;;
72125;SDS011;59999;51.676;22.650;2023-07-30T14:09:43;4.85;;;2.15;;
72125;SDS011;59999;51.676;22.650;2023-07-30T14:12:09;4.90;;;2.17;;
72125;SDS011;59999;51.676;22.650;2023-07-30T14:14:36;4.40;;;2.20;;
72125;SDS011;59999;51.676;22.650;2023-07-30T14:17:01;4.83;;;2.00;;
72125;SDS011;59999;51.676;22.650;2023-07-30T14:19:32;4.43;;;2.10;;
72125;SDS011;59999;51.676;22.650;2023-07-30T14:21:58;4.55;;;2.35;;
72125;SDS011;59999;51.676;22.650;2023-07-30T14:24:24;5.18;;;2.35;;
72125;SDS011;59999;51.676;22.650;2023-07-30T14:26:50;4.83;;;2.10;;
72125;SDS011;59999;51.676;22.650;2023-07-30T14:29:16;4.53;;;2.17;;
72125;SDS011;59999;51.676;22.650;2023-07-30T14:31:42;4.63;;;2.20;;
72125;SDS011;59999;51.676;22.650;2023-07-30T14:34:08;5.40;;;2.40;;
72125;SDS011;59999;51.676;22.650;2023-07-30T14:36:34;4.55;;;2.33;;
72125;SDS011;59999;51.676;22.650;2023-07-30T14:39:00;6.88;;;2.90;;